Sea Fate — 3FNV5 — position and weather

sailwx.info

Track history (hours):
 
Tides and Currents Weather Stations Pressure Air Temp Water Temp Dewpoint Dewpoint Depression Visibility Wind Speed Wind Dir Waves Ship Positions

Sea Fate

Last reported at 2016-Aug-25 15:33 UTC. Time now 2016-Aug-26 06:42 UTC.
Position N 01°12' E 103°52'.

Length 152 m; draft 5.4 m.

Type: Cargo ship. MMSI: 354167000.

Date/timePositionNaut miles runAvg speedWind from/ knotsBaromVisibWave heightAir tempDewpointWater temp
2016-Aug-25 15:33N 01°12' E 103°52'8 8.0
2016-Aug-25 14:33N 01°17' E 103°59'1 0.7
2016-Aug-25 13:32N 01°17' E 103°59'0 0.0
2016-Aug-25 12:20N 01°17' E 103°59'0 0.0
2016-Aug-25 10:29N 01°17' E 103°59'0 0.0
2016-Aug-25 09:23N 01°17' E 103°59'0 0.0
2016-Aug-25 07:29N 01°17' E 103°59'0 0.0
2016-Aug-25 06:29N 01°17' E 103°59'2 1.1
2016-Aug-25 04:33N 01°16' E 103°58'7 6.2
2016-Aug-25 03:29N 01°16' E 104°05'  
2016-Aug-15 21:32N 20°11' E 110°09'  
Track history (hours):
 
Tides and Currents Weather Stations Pressure Air Temp Water Temp Dewpoint Dewpoint Depression Visibility Wind Speed Wind Dir Waves Ship Positions

Sea Fate

Last reported at 2016-Aug-25 15:33 UTC. Time now 2016-Aug-26 06:42 UTC.
Position N 01°12' E 103°52'.

Length 152 m; draft 5.4 m.

Type: Cargo ship. MMSI: 354167000.

Date/timePositionNaut miles runAvg speedWind from/ knotsBaromVisibWave heightAir tempDewpointWater temp
2016-Aug-25 15:33N 01°12' E 103°52'8 8.0
2016-Aug-25 14:33N 01°17' E 103°59'1 0.7
2016-Aug-25 13:32N 01°17' E 103°59'0 0.0
2016-Aug-25 12:20N 01°17' E 103°59'0 0.0
2016-Aug-25 10:29N 01°17' E 103°59'0 0.0
2016-Aug-25 09:23N 01°17' E 103°59'0 0.0
2016-Aug-25 07:29N 01°17' E 103°59'0 0.0
2016-Aug-25 06:29N 01°17' E 103°59'2 1.1
2016-Aug-25 04:33N 01°16' E 103°58'7 6.2
2016-Aug-25 03:29N 01°16' E 104°05'  
2016-Aug-15 21:32N 20°11' E 110°09'  

Dump ship's entire track history